sensor_id;sensor_type;location;lat;lon;timestamp;P1;durP1;ratioP1;P2;durP2;ratioP2
77868;SDS011;67231;59.144;37.934;2024-01-27T00:00:11;17.15;;;6.47;;
77868;SDS011;67231;59.144;37.934;2024-01-27T00:02:40;18.05;;;7.78;;
77868;SDS011;67231;59.144;37.934;2024-01-27T00:05:06;17.30;;;7.18;;
77868;SDS011;67231;59.144;37.934;2024-01-27T00:07:34;19.30;;;7.72;;
77868;SDS011;67231;59.144;37.934;2024-01-27T00:10:01;17.52;;;8.18;;
77868;SDS011;67231;59.144;37.934;2024-01-27T00:12:31;17.40;;;7.47;;
77868;SDS011;67231;59.144;37.934;2024-01-27T00:14:58;16.92;;;6.90;;
77868;SDS011;67231;59.144;37.934;2024-01-27T00:17:24;18.98;;;8.07;;
77868;SDS011;67231;59.144;37.934;2024-01-27T00:19:52;19.90;;;8.07;;
77868;SDS011;67231;59.144;37.934;2024-01-27T00:22:19;16.30;;;7.03;;
77868;SDS011;67231;59.144;37.934;2024-01-27T00:24:47;16.95;;;7.13;;
77868;SDS011;67231;59.144;37.934;2024-01-27T00:27:13;18.52;;;7.57;;
77868;SDS011;67231;59.144;37.934;2024-01-27T00:29:42;17.25;;;7.90;;
77868;SDS011;67231;59.144;37.934;2024-01-27T00:32:09;18.08;;;7.97;;
77868;SDS011;67231;59.144;37.934;2024-01-27T00:34:35;18.05;;;7.88;;
77868;SDS011;67231;59.144;37.934;2024-01-27T00:37:02;19.45;;;7.78;;
77868;SDS011;67231;59.144;37.934;2024-01-27T00:39:29;20.27;;;8.13;;
77868;SDS011;67231;59.144;37.934;2024-01-27T00:41:57;20.38;;;8.18;;
77868;SDS011;67231;59.144;37.934;2024-01-27T00:44:24;17.92;;;7.80;;
77868;SDS011;67231;59.144;37.934;2024-01-27T00:46:51;20.42;;;8.30;;
77868;SDS011;67231;59.144;37.934;2024-01-27T00:49:17;17.27;;;7.60;;
77868;SDS011;67231;59.144;37.934;2024-01-27T00:51:44;20.88;;;8.40;;
77868;SDS011;67231;59.144;37.934;2024-01-27T00:54:10;18.05;;;7.18;;
77868;SDS011;67231;59.144;37.934;2024-01-27T00:56:37;18.75;;;7.82;;
77868;SDS011;67231;59.144;37.934;2024-01-27T00:59:03;19.92;;;8.57;;
77868;SDS011;67231;59.144;37.934;2024-01-27T01:01:30;22.60;;;9.90;;
77868;SDS011;67231;59.144;37.934;2024-01-27T01:03:56;21.52;;;9.57;;
77868;SDS011;67231;59.144;37.934;2024-01-27T01:06:23;40.28;;;16.02;;
77868;SDS011;67231;59.144;37.934;2024-01-27T01:08:49;32.63;;;12.98;;
77868;SDS011;67231;59.144;37.934;2024-01-27T01:11:16;39.80;;;15.75;;
77868;SDS011;67231;59.144;37.934;2024-01-27T01:13:42;50.40;;;21.55;;
77868;SDS011;67231;59.144;37.934;2024-01-27T01:16:09;42.03;;;20.58;;
77868;SDS011;67231;59.144;37.934;2024-01-27T01:18:35;63.65;;;31.45;;
77868;SDS011;67231;59.144;37.934;2024-01-27T01:21:02;36.53;;;17.70;;
77868;SDS011;67231;59.144;37.934;2024-01-27T01:23:28;40.22;;;18.45;;
77868;SDS011;67231;59.144;37.934;2024-01-27T01:25:55;33.63;;;15.55;;
77868;SDS011;67231;59.144;37.934;2024-01-27T01:28:22;36.25;;;16.88;;
77868;SDS011;67231;59.144;37.934;2024-01-27T01:30:49;50.03;;;21.38;;
77868;SDS011;67231;59.144;37.934;2024-01-27T01:33:16;42.17;;;18.65;;
77868;SDS011;67231;59.144;37.934;2024-01-27T01:35:42;31.85;;;13.70;;
77868;SDS011;67231;59.144;37.934;2024-01-27T01:38:09;27.77;;;11.90;;
77868;SDS011;67231;59.144;37.934;2024-01-27T01:40:35;25.30;;;11.68;;
77868;SDS011;67231;59.144;37.934;2024-01-27T01:43:02;27.90;;;10.13;;
77868;SDS011;67231;59.144;37.934;2024-01-27T01:45:30;25.92;;;10.43;;
77868;SDS011;67231;59.144;37.934;2024-01-27T01:47:57;23.05;;;10.02;;
77868;SDS011;67231;59.144;37.934;2024-01-27T01:50:24;24.15;;;10.02;;
77868;SDS011;67231;59.144;37.934;2024-01-27T01:52:50;16.92;;;8.18;;
77868;SDS011;67231;59.144;37.934;2024-01-27T01:55:19;24.33;;;8.52;;
77868;SDS011;67231;59.144;37.934;2024-01-27T01:57:46;25.90;;;9.50;;
77868;SDS011;67231;59.144;37.934;2024-01-27T02:00:13;25.45;;;9.25;;
77868;SDS011;67231;59.144;37.934;2024-01-27T02:02:40;21.25;;;8.82;;
77868;SDS011;67231;59.144;37.934;2024-01-27T02:05:10;22.75;;;9.90;;
77868;SDS011;67231;59.144;37.934;2024-01-27T02:07:36;23.83;;;9.80;;
77868;SDS011;67231;59.144;37.934;2024-01-27T02:10:03;26.20;;;9.82;;
77868;SDS011;67231;59.144;37.934;2024-01-27T02:12:32;23.15;;;10.07;;
77868;SDS011;67231;59.144;37.934;2024-01-27T02:14:59;23.23;;;10.27;;
77868;SDS011;67231;59.144;37.934;2024-01-27T02:17:26;29.40;;;11.68;;
77868;SDS011;67231;59.144;37.934;2024-01-27T02:19:52;27.80;;;10.65;;
77868;SDS011;67231;59.144;37.934;2024-01-27T02:22:19;26.15;;;10.75;;
77868;SDS011;67231;59.144;37.934;2024-01-27T02:24:45;25.83;;;9.90;;
77868;SDS011;67231;59.144;37.934;2024-01-27T02:27:12;24.00;;;9.40;;
77868;SDS011;67231;59.144;37.934;2024-01-27T02:29:39;24.30;;;9.85;;
77868;SDS011;67231;59.144;37.934;2024-01-27T02:32:05;23.40;;;10.02;;
77868;SDS011;67231;59.144;37.934;2024-01-27T02:34:32;24.75;;;10.10;;
77868;SDS011;67231;59.144;37.934;2024-01-27T02:36:59;25.02;;;9.93;;
77868;SDS011;67231;59.144;37.934;2024-01-27T02:39:25;22.70;;;9.13;;
77868;SDS011;67231;59.144;37.934;2024-01-27T02:41:52;22.77;;;9.70;;
77868;SDS011;67231;59.144;37.934;2024-01-27T02:44:18;21.85;;;9.50;;
77868;SDS011;67231;59.144;37.934;2024-01-27T02:46:45;23.77;;;9.75;;
77868;SDS011;67231;59.144;37.934;2024-01-27T02:49:11;25.70;;;9.52;;
77868;SDS011;67231;59.144;37.934;2024-01-27T02:51:38;27.83;;;10.75;;
77868;SDS011;67231;59.144;37.934;2024-01-27T02:54:05;27.63;;;10.35;;
77868;SDS011;67231;59.144;37.934;2024-01-27T02:56:31;24.45;;;10.32;;
77868;SDS011;67231;59.144;37.934;2024-01-27T02:58:57;29.13;;;10.40;;
77868;SDS011;67231;59.144;37.934;2024-01-27T03:01:24;24.58;;;10.02;;
77868;SDS011;67231;59.144;37.934;2024-01-27T03:03:51;26.33;;;10.30;;
77868;SDS011;67231;59.144;37.934;2024-01-27T03:06:17;24.25;;;9.02;;
77868;SDS011;67231;59.144;37.934;2024-01-27T03:08:44;22.70;;;9.13;;
77868;SDS011;67231;59.144;37.934;2024-01-27T03:11:10;27.77;;;10.65;;
77868;SDS011;67231;59.144;37.934;2024-01-27T03:13:37;25.00;;;9.65;;
77868;SDS011;67231;59.144;37.934;2024-01-27T03:16:11;31.02;;;11.75;;
77868;SDS011;67231;59.144;37.934;2024-01-27T03:18:37;36.10;;;10.75;;
77868;SDS011;67231;59.144;37.934;2024-01-27T03:21:05;28.73;;;11.50;;
77868;SDS011;67231;59.144;37.934;2024-01-27T03:23:34;27.35;;;10.50;;
77868;SDS011;67231;59.144;37.934;2024-01-27T03:26:02;31.88;;;12.00;;
77868;SDS011;67231;59.144;37.934;2024-01-27T03:28:30;33.55;;;11.80;;
77868;SDS011;67231;59.144;37.934;2024-01-27T03:30:56;34.10;;;11.85;;
77868;SDS011;67231;59.144;37.934;2024-01-27T03:33:23;33.25;;;13.07;;
77868;SDS011;67231;59.144;37.934;2024-01-27T03:35:49;33.97;;;12.25;;
77868;SDS011;67231;59.144;37.934;2024-01-27T03:38:16;35.67;;;12.10;;
77868;SDS011;67231;59.144;37.934;2024-01-27T03:40:43;36.85;;;12.95;;
77868;SDS011;67231;59.144;37.934;2024-01-27T03:43:09;32.95;;;11.77;;
77868;SDS011;67231;59.144;37.934;2024-01-27T03:45:36;37.50;;;13.02;;
77868;SDS011;67231;59.144;37.934;2024-01-27T03:48:03;39.50;;;14.13;;
77868;SDS011;67231;59.144;37.934;2024-01-27T03:50:29;36.38;;;12.27;;
77868;SDS011;67231;59.144;37.934;2024-01-27T03:52:56;39.13;;;12.60;;
77868;SDS011;67231;59.144;37.934;2024-01-27T03:55:22;40.78;;;13.02;;
77868;SDS011;67231;59.144;37.934;2024-01-27T03:57:49;37.75;;;13.70;;
77868;SDS011;67231;59.144;37.934;2024-01-27T04:00:15;39.78;;;13.35;;
77868;SDS011;67231;59.144;37.934;2024-01-27T04:02:42;37.20;;;12.95;;
77868;SDS011;67231;59.144;37.934;2024-01-27T04:05:09;37.25;;;13.75;;
77868;SDS011;67231;59.144;37.934;2024-01-27T04:07:35;39.53;;;12.70;;
77868;SDS011;67231;59.144;37.934;2024-01-27T04:10:02;40.17;;;12.85;;
77868;SDS011;67231;59.144;37.934;2024-01-27T04:12:30;43.35;;;12.98;;
77868;SDS011;67231;59.144;37.934;2024-01-27T04:14:58;44.45;;;13.55;;
77868;SDS011;67231;59.144;37.934;2024-01-27T04:17:26;42.72;;;13.25;;
77868;SDS011;67231;59.144;37.934;2024-01-27T04:19:52;43.67;;;12.95;;
77868;SDS011;67231;59.144;37.934;2024-01-27T04:22:19;45.30;;;13.77;;
77868;SDS011;67231;59.144;37.934;2024-01-27T04:24:45;49.03;;;13.90;;
77868;SDS011;67231;59.144;37.934;2024-01-27T04:27:12;44.85;;;13.57;;
77868;SDS011;67231;59.144;37.934;2024-01-27T04:29:38;47.70;;;14.65;;
77868;SDS011;67231;59.144;37.934;2024-01-27T04:32:05;45.60;;;13.63;;
77868;SDS011;67231;59.144;37.934;2024-01-27T04:34:32;48.50;;;13.90;;
77868;SDS011;67231;59.144;37.934;2024-01-27T04:36:58;61.28;;;17.60;;
77868;SDS011;67231;59.144;37.934;2024-01-27T04:39:24;55.17;;;15.93;;
77868;SDS011;67231;59.144;37.934;2024-01-27T04:41:51;39.70;;;12.95;;
77868;SDS011;67231;59.144;37.934;2024-01-27T04:44:18;59.80;;;17.13;;
77868;SDS011;67231;59.144;37.934;2024-01-27T04:46:46;51.53;;;14.48;;
77868;SDS011;67231;59.144;37.934;2024-01-27T04:49:14;37.75;;;11.95;;
77868;SDS011;67231;59.144;37.934;2024-01-27T04:51:41;45.00;;;13.43;;
77868;SDS011;67231;59.144;37.934;2024-01-27T04:54:08;44.67;;;13.02;;
77868;SDS011;67231;59.144;37.934;2024-01-27T04:56:35;44.67;;;14.05;;
77868;SDS011;67231;59.144;37.934;2024-01-27T04:59:02;40.30;;;12.52;;
77868;SDS011;67231;59.144;37.934;2024-01-27T05:01:29;45.15;;;13.65;;
77868;SDS011;67231;59.144;37.934;2024-01-27T05:03:55;49.15;;;13.05;;
77868;SDS011;67231;59.144;37.934;2024-01-27T05:06:22;42.50;;;12.35;;
77868;SDS011;67231;59.144;37.934;2024-01-27T05:08:49;43.03;;;13.52;;
77868;SDS011;67231;59.144;37.934;2024-01-27T05:11:15;45.13;;;13.13;;
77868;SDS011;67231;59.144;37.934;2024-01-27T05:13:51;42.88;;;12.43;;
77868;SDS011;67231;59.144;37.934;2024-01-27T05:16:17;43.95;;;11.68;;
77868;SDS011;67231;59.144;37.934;2024-01-27T05:18:44;45.80;;;12.27;;
77868;SDS011;67231;59.144;37.934;2024-01-27T05:21:10;42.50;;;11.00;;
77868;SDS011;67231;59.144;37.934;2024-01-27T05:23:37;49.53;;;13.18;;
77868;SDS011;67231;59.144;37.934;2024-01-27T05:26:05;49.50;;;11.02;;
77868;SDS011;67231;59.144;37.934;2024-01-27T05:28:32;46.90;;;12.07;;
77868;SDS011;67231;59.144;37.934;2024-01-27T05:30:59;46.67;;;10.98;;
77868;SDS011;67231;59.144;37.934;2024-01-27T05:33:26;40.28;;;11.68;;
77868;SDS011;67231;59.144;37.934;2024-01-27T05:35:52;52.20;;;12.38;;
77868;SDS011;67231;59.144;37.934;2024-01-27T05:38:19;47.25;;;12.10;;
77868;SDS011;67231;59.144;37.934;2024-01-27T05:40:45;45.13;;;13.05;;
77868;SDS011;67231;59.144;37.934;2024-01-27T05:43:12;46.65;;;11.23;;
77868;SDS011;67231;59.144;37.934;2024-01-27T05:45:39;47.28;;;10.73;;
77868;SDS011;67231;59.144;37.934;2024-01-27T05:48:05;40.92;;;11.05;;
77868;SDS011;67231;59.144;37.934;2024-01-27T05:50:32;50.92;;;10.55;;
77868;SDS011;67231;59.144;37.934;2024-01-27T05:53:00;43.45;;;10.02;;
77868;SDS011;67231;59.144;37.934;2024-01-27T05:55:27;41.75;;;10.35;;
77868;SDS011;67231;59.144;37.934;2024-01-27T05:57:53;43.00;;;10.60;;
77868;SDS011;67231;59.144;37.934;2024-01-27T06:00:21;37.40;;;11.25;;
77868;SDS011;67231;59.144;37.934;2024-01-27T06:02:48;45.60;;;11.43;;
77868;SDS011;67231;59.144;37.934;2024-01-27T06:05:15;44.63;;;12.52;;
77868;SDS011;67231;59.144;37.934;2024-01-27T06:07:42;45.20;;;12.60;;
77868;SDS011;67231;59.144;37.934;2024-01-27T06:10:09;50.10;;;13.60;;
77868;SDS011;67231;59.144;37.934;2024-01-27T06:12:36;44.22;;;11.63;;
77868;SDS011;67231;59.144;37.934;2024-01-27T06:15:04;40.58;;;11.25;;
77868;SDS011;67231;59.144;37.934;2024-01-27T06:17:32;34.50;;;9.60;;
77868;SDS011;67231;59.144;37.934;2024-01-27T06:19:58;26.65;;;8.55;;
77868;SDS011;67231;59.144;37.934;2024-01-27T06:22:25;29.45;;;8.68;;
77868;SDS011;67231;59.144;37.934;2024-01-27T06:24:51;19.63;;;6.30;;
77868;SDS011;67231;59.144;37.934;2024-01-27T06:27:18;19.83;;;7.30;;
77868;SDS011;67231;59.144;37.934;2024-01-27T06:29:44;24.02;;;8.32;;
77868;SDS011;67231;59.144;37.934;2024-01-27T06:32:11;25.90;;;8.00;;
77868;SDS011;67231;59.144;37.934;2024-01-27T06:34:37;28.98;;;8.75;;
77868;SDS011;67231;59.144;37.934;2024-01-27T06:37:04;25.52;;;8.18;;
77868;SDS011;67231;59.144;37.934;2024-01-27T06:39:31;26.10;;;7.97;;
77868;SDS011;67231;59.144;37.934;2024-01-27T06:41:57;25.10;;;8.50;;
77868;SDS011;67231;59.144;37.934;2024-01-27T06:44:24;28.23;;;8.82;;
77868;SDS011;67231;59.144;37.934;2024-01-27T06:46:50;29.88;;;9.10;;
77868;SDS011;67231;59.144;37.934;2024-01-27T06:49:17;23.33;;;7.32;;
77868;SDS011;67231;59.144;37.934;2024-01-27T06:51:44;29.80;;;9.07;;
77868;SDS011;67231;59.144;37.934;2024-01-27T06:54:10;26.98;;;8.48;;
77868;SDS011;67231;59.144;37.934;2024-01-27T06:56:37;26.00;;;7.97;;
77868;SDS011;67231;59.144;37.934;2024-01-27T06:59:04;23.63;;;7.65;;
77868;SDS011;67231;59.144;37.934;2024-01-27T07:01:30;31.33;;;8.73;;
77868;SDS011;67231;59.144;37.934;2024-01-27T07:03:57;25.30;;;8.00;;
77868;SDS011;67231;59.144;37.934;2024-01-27T07:06:24;27.77;;;8.90;;
77868;SDS011;67231;59.144;37.934;2024-01-27T07:08:51;25.42;;;7.43;;
77868;SDS011;67231;59.144;37.934;2024-01-27T07:11:17;20.85;;;7.00;;
77868;SDS011;67231;59.144;37.934;2024-01-27T07:13:44;24.73;;;8.15;;
77868;SDS011;67231;59.144;37.934;2024-01-27T07:16:10;24.92;;;8.35;;
77868;SDS011;67231;59.144;37.934;2024-01-27T07:18:37;25.55;;;8.50;;
77868;SDS011;67231;59.144;37.934;2024-01-27T07:21:03;28.35;;;8.93;;
77868;SDS011;67231;59.144;37.934;2024-01-27T07:23:30;26.83;;;8.68;;
77868;SDS011;67231;59.144;37.934;2024-01-27T07:25:57;19.33;;;6.10;;
77868;SDS011;67231;59.144;37.934;2024-01-27T07:28:29;20.88;;;7.05;;
77868;SDS011;67231;59.144;37.934;2024-01-27T07:30:56;27.45;;;9.35;;
77868;SDS011;67231;59.144;37.934;2024-01-27T07:33:22;25.75;;;8.18;;
77868;SDS011;67231;59.144;37.934;2024-01-27T07:36:02;27.38;;;9.13;;
77868;SDS011;67231;59.144;37.934;2024-01-27T07:38:29;23.52;;;7.38;;
77868;SDS011;67231;59.144;37.934;2024-01-27T07:40:55;31.77;;;10.85;;
77868;SDS011;67231;59.144;37.934;2024-01-27T07:43:23;33.55;;;11.18;;
77868;SDS011;67231;59.144;37.934;2024-01-27T07:45:54;26.17;;;8.88;;
77868;SDS011;67231;59.144;37.934;2024-01-27T07:48:20;20.45;;;7.18;;
77868;SDS011;67231;59.144;37.934;2024-01-27T07:50:47;23.38;;;8.57;;
77868;SDS011;67231;59.144;37.934;2024-01-27T07:53:15;20.67;;;8.07;;
77868;SDS011;67231;59.144;37.934;2024-01-27T07:55:44;16.52;;;6.75;;
77868;SDS011;67231;59.144;37.934;2024-01-27T07:58:10;14.77;;;6.13;;
77868;SDS011;67231;59.144;37.934;2024-01-27T08:00:37;15.48;;;6.70;;
77868;SDS011;67231;59.144;37.934;2024-01-27T08:03:04;16.67;;;5.68;;
77868;SDS011;67231;59.144;37.934;2024-01-27T08:05:31;14.30;;;5.72;;
77868;SDS011;67231;59.144;37.934;2024-01-27T08:07:57;14.27;;;5.13;;
77868;SDS011;67231;59.144;37.934;2024-01-27T08:10:23;12.40;;;4.82;;
77868;SDS011;67231;59.144;37.934;2024-01-27T08:12:50;11.98;;;5.07;;
77868;SDS011;67231;59.144;37.934;2024-01-27T08:15:16;12.25;;;4.88;;
77868;SDS011;67231;59.144;37.934;2024-01-27T08:17:42;12.95;;;5.00;;
77868;SDS011;67231;59.144;37.934;2024-01-27T08:20:09;11.40;;;4.45;;
77868;SDS011;67231;59.144;37.934;2024-01-27T08:22:36;15.18;;;6.18;;
77868;SDS011;67231;59.144;37.934;2024-01-27T08:25:02;13.43;;;5.55;;
77868;SDS011;67231;59.144;37.934;2024-01-27T08:27:29;12.80;;;5.60;;
77868;SDS011;67231;59.144;37.934;2024-01-27T08:29:56;15.90;;;6.30;;
77868;SDS011;67231;59.144;37.934;2024-01-27T08:32:22;14.88;;;5.40;;
77868;SDS011;67231;59.144;37.934;2024-01-27T08:34:48;11.10;;;4.50;;
77868;SDS011;67231;59.144;37.934;2024-01-27T08:37:17;13.50;;;6.63;;
77868;SDS011;67231;59.144;37.934;2024-01-27T08:39:44;15.65;;;7.28;;
77868;SDS011;67231;59.144;37.934;2024-01-27T08:42:11;16.63;;;7.25;;
77868;SDS011;67231;59.144;37.934;2024-01-27T08:44:38;16.27;;;6.88;;
77868;SDS011;67231;59.144;37.934;2024-01-27T08:47:05;15.20;;;7.07;;
77868;SDS011;67231;59.144;37.934;2024-01-27T08:49:32;15.50;;;6.00;;
77868;SDS011;67231;59.144;37.934;2024-01-27T08:51:58;12.93;;;5.90;;
77868;SDS011;67231;59.144;37.934;2024-01-27T08:54:27;15.10;;;5.50;;
77868;SDS011;67231;59.144;37.934;2024-01-27T08:56:53;13.45;;;5.07;;
77868;SDS011;67231;59.144;37.934;2024-01-27T08:59:19;27.15;;;10.02;;
77868;SDS011;67231;59.144;37.934;2024-01-27T09:01:47;27.23;;;9.20;;
77868;SDS011;67231;59.144;37.934;2024-01-27T09:04:13;16.45;;;5.53;;
77868;SDS011;67231;59.144;37.934;2024-01-27T09:09:15;11.98;;;4.50;;
77868;SDS011;67231;59.144;37.934;2024-01-27T09:11:42;12.43;;;4.75;;
77868;SDS011;67231;59.144;37.934;2024-01-27T09:14:16;12.20;;;4.93;;
77868;SDS011;67231;59.144;37.934;2024-01-27T09:16:42;11.57;;;4.85;;
77868;SDS011;67231;59.144;37.934;2024-01-27T09:19:08;16.52;;;6.47;;
77868;SDS011;67231;59.144;37.934;2024-01-27T09:21:35;14.32;;;5.03;;
77868;SDS011;67231;59.144;37.934;2024-01-27T09:24:02;6.95;;;3.65;;
77868;SDS011;67231;59.144;37.934;2024-01-27T09:26:29;7.07;;;3.25;;
77868;SDS011;67231;59.144;37.934;2024-01-27T09:28:56;10.05;;;3.95;;
77868;SDS011;67231;59.144;37.934;2024-01-27T09:31:23;9.80;;;4.53;;
77868;SDS011;67231;59.144;37.934;2024-01-27T09:33:51;9.68;;;4.93;;
77868;SDS011;67231;59.144;37.934;2024-01-27T09:36:19;7.53;;;3.45;;
77868;SDS011;67231;59.144;37.934;2024-01-27T09:38:46;7.63;;;3.70;;
77868;SDS011;67231;59.144;37.934;2024-01-27T09:41:13;10.63;;;4.40;;
77868;SDS011;67231;59.144;37.934;2024-01-27T09:43:41;9.77;;;4.80;;
77868;SDS011;67231;59.144;37.934;2024-01-27T09:46:14;11.10;;;5.00;;
77868;SDS011;67231;59.144;37.934;2024-01-27T09:48:42;12.73;;;5.07;;
77868;SDS011;67231;59.144;37.934;2024-01-27T09:51:09;12.20;;;5.50;;
77868;SDS011;67231;59.144;37.934;2024-01-27T09:53:36;11.20;;;5.60;;
77868;SDS011;67231;59.144;37.934;2024-01-27T09:56:03;11.30;;;4.70;;
77868;SDS011;67231;59.144;37.934;2024-01-27T09:58:30;10.07;;;4.75;;
77868;SDS011;67231;59.144;37.934;2024-01-27T10:00:57;9.60;;;4.60;;
77868;SDS011;67231;59.144;37.934;2024-01-27T10:03:25;10.50;;;4.75;;
77868;SDS011;67231;59.144;37.934;2024-01-27T10:05:54;9.18;;;4.45;;
77868;SDS011;67231;59.144;37.934;2024-01-27T10:08:22;8.05;;;4.30;;
77868;SDS011;67231;59.144;37.934;2024-01-27T10:10:50;8.82;;;4.05;;
77868;SDS011;67231;59.144;37.934;2024-01-27T10:13:20;6.82;;;3.83;;
77868;SDS011;67231;59.144;37.934;2024-01-27T10:16:02;8.85;;;4.35;;
77868;SDS011;67231;59.144;37.934;2024-01-27T10:18:32;8.85;;;4.35;;
77868;SDS011;67231;59.144;37.934;2024-01-27T10:21:00;11.20;;;4.65;;
77868;SDS011;67231;59.144;37.934;2024-01-27T10:23:41;10.88;;;4.78;;
77868;SDS011;67231;59.144;37.934;2024-01-27T10:26:11;10.38;;;5.10;;
77868;SDS011;67231;59.144;37.934;2024-01-27T10:28:37;11.40;;;5.45;;
77868;SDS011;67231;59.144;37.934;2024-01-27T10:31:07;11.73;;;5.40;;
77868;SDS011;67231;59.144;37.934;2024-01-27T10:33:37;12.45;;;6.00;;
77868;SDS011;67231;59.144;37.934;2024-01-27T10:36:04;17.20;;;8.27;;
77868;SDS011;67231;59.144;37.934;2024-01-27T10:38:38;12.15;;;5.50;;
77868;SDS011;67231;59.144;37.934;2024-01-27T10:41:08;10.70;;;4.82;;
77868;SDS011;67231;59.144;37.934;2024-01-27T10:43:38;10.93;;;5.05;;
77868;SDS011;67231;59.144;37.934;2024-01-27T10:46:06;11.18;;;4.75;;
77868;SDS011;67231;59.144;37.934;2024-01-27T10:48:37;12.05;;;5.35;;
77868;SDS011;67231;59.144;37.934;2024-01-27T10:51:08;11.50;;;4.80;;
77868;SDS011;67231;59.144;37.934;2024-01-27T10:53:38;10.68;;;4.68;;
77868;SDS011;67231;59.144;37.934;2024-01-27T10:56:07;8.98;;;4.00;;
77868;SDS011;67231;59.144;37.934;2024-01-27T10:58:35;8.57;;;4.45;;
77868;SDS011;67231;59.144;37.934;2024-01-27T11:01:10;9.88;;;4.35;;
77868;SDS011;67231;59.144;37.934;2024-01-27T11:03:40;10.00;;;4.10;;
77868;SDS011;67231;59.144;37.934;2024-01-27T11:06:07;8.95;;;4.32;;
77868;SDS011;67231;59.144;37.934;2024-01-27T11:08:34;7.40;;;3.17;;
77868;SDS011;67231;59.144;37.934;2024-01-27T11:11:01;7.60;;;3.72;;
77868;SDS011;67231;59.144;37.934;2024-01-27T11:13:28;7.97;;;3.72;;
77868;SDS011;67231;59.144;37.934;2024-01-27T11:15:56;8.93;;;4.18;;
77868;SDS011;67231;59.144;37.934;2024-01-27T11:18:24;9.02;;;4.72;;
77868;SDS011;67231;59.144;37.934;2024-01-27T11:20:56;7.45;;;3.75;;
77868;SDS011;67231;59.144;37.934;2024-01-27T11:23:33;11.20;;;4.72;;
77868;SDS011;67231;59.144;37.934;2024-01-27T11:26:08;17.15;;;5.43;;
77868;SDS011;67231;59.144;37.934;2024-01-27T11:28:36;11.32;;;4.95;;
77868;SDS011;67231;59.144;37.934;2024-01-27T11:31:03;11.40;;;5.07;;
77868;SDS011;67231;59.144;37.934;2024-01-27T11:33:33;11.90;;;5.65;;
77868;SDS011;67231;59.144;37.934;2024-01-27T11:36:06;17.33;;;6.78;;
77868;SDS011;67231;59.144;37.934;2024-01-27T11:38:33;16.52;;;6.90;;
77868;SDS011;67231;59.144;37.934;2024-01-27T11:41:00;14.90;;;6.15;;
77868;SDS011;67231;59.144;37.934;2024-01-27T11:43:27;13.00;;;5.70;;
77868;SDS011;67231;59.144;37.934;2024-01-27T11:45:55;12.70;;;6.07;;
77868;SDS011;67231;59.144;37.934;2024-01-27T11:48:26;12.27;;;5.80;;
77868;SDS011;67231;59.144;37.934;2024-01-27T11:51:28;13.13;;;5.57;;
77868;SDS011;67231;59.144;37.934;2024-01-27T11:53:49;16.08;;;6.03;;
77868;SDS011;67231;59.144;37.934;2024-01-27T11:56:15;13.38;;;5.35;;
77868;SDS011;67231;59.144;37.934;2024-01-27T11:58:48;12.48;;;6.15;;
77868;SDS011;67231;59.144;37.934;2024-01-27T12:01:15;14.65;;;5.78;;
77868;SDS011;67231;59.144;37.934;2024-01-27T12:03:41;16.92;;;7.43;;
77868;SDS011;67231;59.144;37.934;2024-01-27T12:06:08;16.67;;;6.90;;
77868;SDS011;67231;59.144;37.934;2024-01-27T12:08:35;12.63;;;5.90;;
77868;SDS011;67231;59.144;37.934;2024-01-27T12:11:02;10.93;;;5.13;;
77868;SDS011;67231;59.144;37.934;2024-01-27T12:13:28;8.65;;;4.18;;
77868;SDS011;67231;59.144;37.934;2024-01-27T12:15:55;11.20;;;4.45;;
77868;SDS011;67231;59.144;37.934;2024-01-27T12:18:21;8.85;;;4.30;;
77868;SDS011;67231;59.144;37.934;2024-01-27T12:20:48;11.60;;;5.05;;
77868;SDS011;67231;59.144;37.934;2024-01-27T12:23:14;12.18;;;5.38;;
77868;SDS011;67231;59.144;37.934;2024-01-27T12:25:42;11.23;;;5.32;;
77868;SDS011;67231;59.144;37.934;2024-01-27T12:28:09;12.18;;;5.30;;
77868;SDS011;67231;59.144;37.934;2024-01-27T12:30:36;13.07;;;5.07;;
77868;SDS011;67231;59.144;37.934;2024-01-27T12:33:09;11.45;;;5.05;;
77868;SDS011;67231;59.144;37.934;2024-01-27T12:35:38;9.27;;;4.22;;
77868;SDS011;67231;59.144;37.934;2024-01-27T12:38:07;12.48;;;4.80;;
77868;SDS011;67231;59.144;37.934;2024-01-27T12:40:35;11.85;;;4.55;;
77868;SDS011;67231;59.144;37.934;2024-01-27T12:43:03;9.60;;;4.85;;
77868;SDS011;67231;59.144;37.934;2024-01-27T12:45:31;11.55;;;5.03;;
77868;SDS011;67231;59.144;37.934;2024-01-27T12:47:59;12.18;;;6.05;;
77868;SDS011;67231;59.144;37.934;2024-01-27T12:50:25;15.65;;;6.22;;
77868;SDS011;67231;59.144;37.934;2024-01-27T12:52:52;12.48;;;6.05;;
77868;SDS011;67231;59.144;37.934;2024-01-27T12:55:18;13.90;;;5.60;;
77868;SDS011;67231;59.144;37.934;2024-01-27T12:57:46;13.20;;;5.53;;
77868;SDS011;67231;59.144;37.934;2024-01-27T13:00:13;14.65;;;6.25;;
77868;SDS011;67231;59.144;37.934;2024-01-27T13:02:41;10.23;;;4.68;;
77868;SDS011;67231;59.144;37.934;2024-01-27T13:05:09;11.00;;;5.05;;
77868;SDS011;67231;59.144;37.934;2024-01-27T13:07:37;13.27;;;5.57;;
77868;SDS011;67231;59.144;37.934;2024-01-27T13:10:04;10.60;;;5.25;;
77868;SDS011;67231;59.144;37.934;2024-01-27T13:12:30;13.98;;;6.53;;
77868;SDS011;67231;59.144;37.934;2024-01-27T13:14:57;14.68;;;5.85;;
77868;SDS011;67231;59.144;37.934;2024-01-27T13:17:23;12.02;;;5.68;;
77868;SDS011;67231;59.144;37.934;2024-01-27T13:19:50;11.80;;;5.20;;
77868;SDS011;67231;59.144;37.934;2024-01-27T13:22:16;9.77;;;4.10;;
77868;SDS011;67231;59.144;37.934;2024-01-27T13:24:43;7.65;;;3.78;;
77868;SDS011;67231;59.144;37.934;2024-01-27T13:27:11;8.48;;;4.03;;
77868;SDS011;67231;59.144;37.934;2024-01-27T13:29:38;6.97;;;3.40;;
77868;SDS011;67231;59.144;37.934;2024-01-27T13:32:04;9.18;;;4.05;;
77868;SDS011;67231;59.144;37.934;2024-01-27T13:34:32;5.00;;;2.90;;
77868;SDS011;67231;59.144;37.934;2024-01-27T13:36:58;6.45;;;3.17;;
77868;SDS011;67231;59.144;37.934;2024-01-27T13:39:28;7.75;;;4.07;;
77868;SDS011;67231;59.144;37.934;2024-01-27T13:41:55;13.57;;;6.32;;
77868;SDS011;67231;59.144;37.934;2024-01-27T13:44:21;12.82;;;5.32;;
77868;SDS011;67231;59.144;37.934;2024-01-27T13:46:48;9.57;;;4.18;;
77868;SDS011;67231;59.144;37.934;2024-01-27T13:49:14;10.70;;;3.80;;
77868;SDS011;67231;59.144;37.934;2024-01-27T13:51:40;8.20;;;3.80;;
77868;SDS011;67231;59.144;37.934;2024-01-27T13:54:07;7.28;;;3.78;;
77868;SDS011;67231;59.144;37.934;2024-01-27T13:56:35;8.20;;;3.83;;
77868;SDS011;67231;59.144;37.934;2024-01-27T13:59:01;8.43;;;4.20;;
77868;SDS011;67231;59.144;37.934;2024-01-27T14:01:30;9.25;;;4.50;;
77868;SDS011;67231;59.144;37.934;2024-01-27T14:03:56;8.57;;;3.78;;
77868;SDS011;67231;59.144;37.934;2024-01-27T14:06:23;7.40;;;3.75;;
77868;SDS011;67231;59.144;37.934;2024-01-27T14:08:49;8.75;;;3.92;;
77868;SDS011;67231;59.144;37.934;2024-01-27T14:11:15;8.70;;;4.28;;
77868;SDS011;67231;59.144;37.934;2024-01-27T14:13:42;10.30;;;4.63;;
77868;SDS011;67231;59.144;37.934;2024-01-27T14:16:09;8.48;;;4.05;;
77868;SDS011;67231;59.144;37.934;2024-01-27T14:18:35;9.48;;;4.03;;
77868;SDS011;67231;59.144;37.934;2024-01-27T14:21:02;9.10;;;3.83;;